sensor_id;sensor_type;location;lat;lon;timestamp;temperature;humidity
10447;DHT22;5271;44.422;26.092;2022-07-23T00:01:26;28.20;55.00
10447;DHT22;5271;44.422;26.092;2022-07-23T00:03:55;28.20;55.10
10447;DHT22;5271;44.422;26.092;2022-07-23T00:06:22;28.20;55.30
10447;DHT22;5271;44.422;26.092;2022-07-23T00:08:50;28.20;55.40
10447;DHT22;5271;44.422;26.092;2022-07-23T00:11:17;28.20;55.80
10447;DHT22;5271;44.422;26.092;2022-07-23T00:13:44;28.20;55.20
10447;DHT22;5271;44.422;26.092;2022-07-23T00:16:11;28.20;55.40
10447;DHT22;5271;44.422;26.092;2022-07-23T00:18:40;28.20;54.70
10447;DHT22;5271;44.422;26.092;2022-07-23T00:21:07;28.20;55.00
10447;DHT22;5271;44.422;26.092;2022-07-23T00:23:34;28.10;54.50
10447;DHT22;5271;44.422;26.092;2022-07-23T00:26:02;28.10;54.80
10447;DHT22;5271;44.422;26.092;2022-07-23T00:28:29;28.10;54.50
10447;DHT22;5271;44.422;26.092;2022-07-23T00:30:56;28.10;54.60
10447;DHT22;5271;44.422;26.092;2022-07-23T00:33:23;28.10;54.50
10447;DHT22;5271;44.422;26.092;2022-07-23T00:35:51;28.10;54.60
10447;DHT22;5271;44.422;26.092;2022-07-23T00:38:18;28.10;54.90
10447;DHT22;5271;44.422;26.092;2022-07-23T00:40:46;28.10;55.40
10447;DHT22;5271;44.422;26.092;2022-07-23T00:43:13;28.10;55.00
10447;DHT22;5271;44.422;26.092;2022-07-23T00:45:40;28.10;55.50
10447;DHT22;5271;44.422;26.092;2022-07-23T00:48:07;28.00;55.50
10447;DHT22;5271;44.422;26.092;2022-07-23T00:50:35;28.00;55.30
10447;DHT22;5271;44.422;26.092;2022-07-23T00:53:03;27.90;55.50
10447;DHT22;5271;44.422;26.092;2022-07-23T00:55:31;27.80;55.60
10447;DHT22;5271;44.422;26.092;2022-07-23T00:57:59;27.80;56.20
10447;DHT22;5271;44.422;26.092;2022-07-23T01:00:27;27.70;56.10
10447;DHT22;5271;44.422;26.092;2022-07-23T01:02:55;27.60;56.50
10447;DHT22;5271;44.422;26.092;2022-07-23T01:05:22;27.50;56.30
10447;DHT22;5271;44.422;26.092;2022-07-23T01:07:49;27.50;56.40
10447;DHT22;5271;44.422;26.092;2022-07-23T01:10:18;27.40;56.40
10447;DHT22;5271;44.422;26.092;2022-07-23T01:12:57;27.40;56.30
10447;DHT22;5271;44.422;26.092;2022-07-23T01:15:25;27.40;56.20
10447;DHT22;5271;44.422;26.092;2022-07-23T01:17:52;27.20;56.20
10447;DHT22;5271;44.422;26.092;2022-07-23T01:20:19;27.20;56.40
10447;DHT22;5271;44.422;26.092;2022-07-23T01:22:48;27.10;56.60
10447;DHT22;5271;44.422;26.092;2022-07-23T01:25:15;27.00;56.60
10447;DHT22;5271;44.422;26.092;2022-07-23T01:27:42;27.00;56.70
10447;DHT22;5271;44.422;26.092;2022-07-23T01:30:10;27.00;56.80
10447;DHT22;5271;44.422;26.092;2022-07-23T01:32:38;26.90;56.90
10447;DHT22;5271;44.422;26.092;2022-07-23T01:35:06;26.90;57.10
10447;DHT22;5271;44.422;26.092;2022-07-23T01:37:34;27.10;58.70
10447;DHT22;5271;44.422;26.092;2022-07-23T01:40:03;27.10;57.70
10447;DHT22;5271;44.422;26.092;2022-07-23T01:42:31;27.20;58.50
10447;DHT22;5271;44.422;26.092;2022-07-23T01:44:58;27.20;57.30
10447;DHT22;5271;44.422;26.092;2022-07-23T01:47:26;27.10;57.30
10447;DHT22;5271;44.422;26.092;2022-07-23T01:49:53;27.20;57.40
10447;DHT22;5271;44.422;26.092;2022-07-23T01:52:20;27.20;57.50
10447;DHT22;5271;44.422;26.092;2022-07-23T01:54:47;27.20;57.90
10447;DHT22;5271;44.422;26.092;2022-07-23T01:57:15;27.30;57.90
10447;DHT22;5271;44.422;26.092;2022-07-23T01:59:42;27.30;57.50
10447;DHT22;5271;44.422;26.092;2022-07-23T02:02:10;27.30;57.60
10447;DHT22;5271;44.422;26.092;2022-07-23T02:04:37;27.30;58.10
10447;DHT22;5271;44.422;26.092;2022-07-23T02:07:05;27.20;57.70
10447;DHT22;5271;44.422;26.092;2022-07-23T02:09:32;27.00;58.00
10447;DHT22;5271;44.422;26.092;2022-07-23T02:11:59;26.90;58.30
10447;DHT22;5271;44.422;26.092;2022-07-23T02:14:27;26.80;58.40
10447;DHT22;5271;44.422;26.092;2022-07-23T02:16:54;26.80;58.60
10447;DHT22;5271;44.422;26.092;2022-07-23T02:19:22;26.70;58.60
10447;DHT22;5271;44.422;26.092;2022-07-23T02:21:49;26.60;58.90
10447;DHT22;5271;44.422;26.092;2022-07-23T02:24:16;26.50;59.10
10447;DHT22;5271;44.422;26.092;2022-07-23T02:26:43;26.40;59.40
10447;DHT22;5271;44.422;26.092;2022-07-23T02:29:10;26.30;59.20
10447;DHT22;5271;44.422;26.092;2022-07-23T02:31:39;26.20;59.50
10447;DHT22;5271;44.422;26.092;2022-07-23T02:34:06;26.20;60.00
10447;DHT22;5271;44.422;26.092;2022-07-23T02:36:37;26.20;60.00
10447;DHT22;5271;44.422;26.092;2022-07-23T02:39:04;26.30;60.20
10447;DHT22;5271;44.422;26.092;2022-07-23T02:41:31;26.30;60.10
10447;DHT22;5271;44.422;26.092;2022-07-23T02:43:58;26.30;60.20
10447;DHT22;5271;44.422;26.092;2022-07-23T02:46:25;26.20;60.70
10447;DHT22;5271;44.422;26.092;2022-07-23T02:48:54;25.90;61.50
10447;DHT22;5271;44.422;26.092;2022-07-23T02:51:21;25.40;62.10
10447;DHT22;5271;44.422;26.092;2022-07-23T02:53:48;25.20;63.30
10447;DHT22;5271;44.422;26.092;2022-07-23T02:56:15;25.00;63.40
10447;DHT22;5271;44.422;26.092;2022-07-23T02:58:42;25.20;63.70
10447;DHT22;5271;44.422;26.092;2022-07-23T03:01:09;25.30;62.80
10447;DHT22;5271;44.422;26.092;2022-07-23T03:03:37;25.30;63.10
10447;DHT22;5271;44.422;26.092;2022-07-23T03:06:06;25.20;63.10
10447;DHT22;5271;44.422;26.092;2022-07-23T03:08:33;25.20;62.80
10447;DHT22;5271;44.422;26.092;2022-07-23T03:11:00;25.30;63.30
10447;DHT22;5271;44.422;26.092;2022-07-23T03:13:27;25.50;62.70
10447;DHT22;5271;44.422;26.092;2022-07-23T03:15:55;25.10;63.50
10447;DHT22;5271;44.422;26.092;2022-07-23T03:18:22;25.20;63.90
10447;DHT22;5271;44.422;26.092;2022-07-23T03:20:49;25.10;63.50
10447;DHT22;5271;44.422;26.092;2022-07-23T03:23:18;24.80;64.10
10447;DHT22;5271;44.422;26.092;2022-07-23T03:25:45;24.50;64.50
10447;DHT22;5271;44.422;26.092;2022-07-23T03:28:14;24.80;64.90
10447;DHT22;5271;44.422;26.092;2022-07-23T03:30:41;24.90;64.00
10447;DHT22;5271;44.422;26.092;2022-07-23T03:33:08;24.90;63.80
10447;DHT22;5271;44.422;26.092;2022-07-23T03:35:36;24.90;63.60
10447;DHT22;5271;44.422;26.092;2022-07-23T03:38:03;24.90;64.00
10447;DHT22;5271;44.422;26.092;2022-07-23T03:40:31;24.90;63.80
10447;DHT22;5271;44.422;26.092;2022-07-23T03:42:58;24.90;63.60
10447;DHT22;5271;44.422;26.092;2022-07-23T03:45:26;24.90;64.40
10447;DHT22;5271;44.422;26.092;2022-07-23T03:47:53;24.90;63.90
10447;DHT22;5271;44.422;26.092;2022-07-23T03:50:20;25.00;63.80
10447;DHT22;5271;44.422;26.092;2022-07-23T03:52:48;25.50;63.20
10447;DHT22;5271;44.422;26.092;2022-07-23T03:55:15;25.40;63.00
10447;DHT22;5271;44.422;26.092;2022-07-23T03:57:44;25.30;63.10
10447;DHT22;5271;44.422;26.092;2022-07-23T04:00:12;25.30;63.40
10447;DHT22;5271;44.422;26.092;2022-07-23T04:02:39;25.30;63.30
10447;DHT22;5271;44.422;26.092;2022-07-23T04:05:07;25.20;63.60
10447;DHT22;5271;44.422;26.092;2022-07-23T04:07:34;25.20;63.60
10447;DHT22;5271;44.422;26.092;2022-07-23T04:10:02;25.20;63.80
10447;DHT22;5271;44.422;26.092;2022-07-23T04:12:29;25.20;63.80
10447;DHT22;5271;44.422;26.092;2022-07-23T04:14:58;25.40;63.90
10447;DHT22;5271;44.422;26.092;2022-07-23T04:17:25;25.30;63.60
10447;DHT22;5271;44.422;26.092;2022-07-23T04:19:52;25.30;63.70
10447;DHT22;5271;44.422;26.092;2022-07-23T04:22:19;25.70;63.30
10447;DHT22;5271;44.422;26.092;2022-07-23T04:24:46;25.90;63.00
10447;DHT22;5271;44.422;26.092;2022-07-23T04:27:14;25.90;63.10
10447;DHT22;5271;44.422;26.092;2022-07-23T04:29:42;25.90;62.80
10447;DHT22;5271;44.422;26.092;2022-07-23T04:32:10;25.70;63.30
10447;DHT22;5271;44.422;26.092;2022-07-23T04:34:37;25.60;63.60
10447;DHT22;5271;44.422;26.092;2022-07-23T04:37:04;25.60;63.60
10447;DHT22;5271;44.422;26.092;2022-07-23T04:39:31;25.80;63.30
10447;DHT22;5271;44.422;26.092;2022-07-23T04:41:59;25.80;63.30
10447;DHT22;5271;44.422;26.092;2022-07-23T04:44:26;26.10;62.80
10447;DHT22;5271;44.422;26.092;2022-07-23T04:46:53;26.20;62.30
10447;DHT22;5271;44.422;26.092;2022-07-23T04:49:21;26.40;62.40
10447;DHT22;5271;44.422;26.092;2022-07-23T04:51:48;26.50;61.90
10447;DHT22;5271;44.422;26.092;2022-07-23T04:54:16;26.60;61.50
10447;DHT22;5271;44.422;26.092;2022-07-23T04:56:43;26.70;61.40
10447;DHT22;5271;44.422;26.092;2022-07-23T04:59:10;26.70;61.50
10447;DHT22;5271;44.422;26.092;2022-07-23T05:01:37;26.70;61.20
10447;DHT22;5271;44.422;26.092;2022-07-23T05:04:05;26.90;61.10
10447;DHT22;5271;44.422;26.092;2022-07-23T05:06:34;26.90;60.90
10447;DHT22;5271;44.422;26.092;2022-07-23T05:09:01;27.00;60.90
10447;DHT22;5271;44.422;26.092;2022-07-23T05:11:28;27.00;60.90
10447;DHT22;5271;44.422;26.092;2022-07-23T05:13:55;27.10;60.80
10447;DHT22;5271;44.422;26.092;2022-07-23T05:16:22;27.20;60.70
10447;DHT22;5271;44.422;26.092;2022-07-23T05:18:50;27.30;60.40
10447;DHT22;5271;44.422;26.092;2022-07-23T05:21:17;27.40;60.40
10447;DHT22;5271;44.422;26.092;2022-07-23T05:23:45;27.60;60.00
10447;DHT22;5271;44.422;26.092;2022-07-23T05:26:12;27.70;59.90
10447;DHT22;5271;44.422;26.092;2022-07-23T05:28:39;27.80;59.80
10447;DHT22;5271;44.422;26.092;2022-07-23T05:31:06;27.90;59.80
10447;DHT22;5271;44.422;26.092;2022-07-23T05:33:34;27.90;59.80
10447;DHT22;5271;44.422;26.092;2022-07-23T05:36:01;28.10;59.70
10447;DHT22;5271;44.422;26.092;2022-07-23T05:38:28;28.20;59.50
10447;DHT22;5271;44.422;26.092;2022-07-23T05:40:57;28.20;59.50
10447;DHT22;5271;44.422;26.092;2022-07-23T05:43:24;28.20;59.50
10447;DHT22;5271;44.422;26.092;2022-07-23T05:45:51;28.20;59.50
10447;DHT22;5271;44.422;26.092;2022-07-23T05:48:19;28.10;59.70
10447;DHT22;5271;44.422;26.092;2022-07-23T05:50:46;28.20;59.50
10447;DHT22;5271;44.422;26.092;2022-07-23T05:53:14;28.30;59.30
10447;DHT22;5271;44.422;26.092;2022-07-23T05:55:41;28.30;59.20
10447;DHT22;5271;44.422;26.092;2022-07-23T05:58:09;28.50;59.00
10447;DHT22;5271;44.422;26.092;2022-07-23T06:00:36;28.60;58.70
10447;DHT22;5271;44.422;26.092;2022-07-23T06:03:04;28.70;58.60
10447;DHT22;5271;44.422;26.092;2022-07-23T06:05:31;28.80;58.70
10447;DHT22;5271;44.422;26.092;2022-07-23T06:07:58;28.90;58.60
10447;DHT22;5271;44.422;26.092;2022-07-23T06:10:25;29.10;58.50
10447;DHT22;5271;44.422;26.092;2022-07-23T06:12:52;29.20;58.20
10447;DHT22;5271;44.422;26.092;2022-07-23T06:15:21;29.20;58.20
10447;DHT22;5271;44.422;26.092;2022-07-23T06:17:48;29.30;58.00
10447;DHT22;5271;44.422;26.092;2022-07-23T06:20:15;29.30;58.00
10447;DHT22;5271;44.422;26.092;2022-07-23T06:22:42;29.40;58.00
10447;DHT22;5271;44.422;26.092;2022-07-23T06:25:09;29.50;57.70
10447;DHT22;5271;44.422;26.092;2022-07-23T06:27:36;29.60;57.60
10447;DHT22;5271;44.422;26.092;2022-07-23T06:30:04;29.70;57.20
10447;DHT22;5271;44.422;26.092;2022-07-23T06:32:35;29.80;57.00
10447;DHT22;5271;44.422;26.092;2022-07-23T06:35:02;29.90;57.10
10447;DHT22;5271;44.422;26.092;2022-07-23T06:37:29;29.90;56.70
10447;DHT22;5271;44.422;26.092;2022-07-23T06:39:56;30.10;56.60
10447;DHT22;5271;44.422;26.092;2022-07-23T06:42:23;30.20;56.70
10447;DHT22;5271;44.422;26.092;2022-07-23T06:44:50;30.20;56.40
10447;DHT22;5271;44.422;26.092;2022-07-23T06:47:18;30.30;56.60
10447;DHT22;5271;44.422;26.092;2022-07-23T06:49:46;30.50;56.20
10447;DHT22;5271;44.422;26.092;2022-07-23T06:52:13;30.50;56.40
10447;DHT22;5271;44.422;26.092;2022-07-23T06:54:40;30.40;56.50
10447;DHT22;5271;44.422;26.092;2022-07-23T06:57:08;30.50;56.40
10447;DHT22;5271;44.422;26.092;2022-07-23T06:59:35;30.50;56.40
10447;DHT22;5271;44.422;26.092;2022-07-23T07:02:06;30.60;56.30
10447;DHT22;5271;44.422;26.092;2022-07-23T07:04:33;30.70;56.10
10447;DHT22;5271;44.422;26.092;2022-07-23T07:07:01;30.80;55.60
10447;DHT22;5271;44.422;26.092;2022-07-23T07:09:29;30.90;55.80
10447;DHT22;5271;44.422;26.092;2022-07-23T07:11:56;31.00;55.40
10447;DHT22;5271;44.422;26.092;2022-07-23T07:14:23;31.00;54.70
10447;DHT22;5271;44.422;26.092;2022-07-23T07:16:50;31.20;54.50
10447;DHT22;5271;44.422;26.092;2022-07-23T07:19:17;31.20;55.20
10447;DHT22;5271;44.422;26.092;2022-07-23T07:21:44;31.20;54.60
10447;DHT22;5271;44.422;26.092;2022-07-23T07:24:13;31.30;54.10
10447;DHT22;5271;44.422;26.092;2022-07-23T07:26:40;31.40;53.50
10447;DHT22;5271;44.422;26.092;2022-07-23T07:29:07;31.40;53.30
10447;DHT22;5271;44.422;26.092;2022-07-23T07:31:34;31.40;53.40
10447;DHT22;5271;44.422;26.092;2022-07-23T07:34:01;31.40;53.20
10447;DHT22;5271;44.422;26.092;2022-07-23T07:36:29;31.50;52.90
10447;DHT22;5271;44.422;26.092;2022-07-23T07:38:56;31.50;53.10
10447;DHT22;5271;44.422;26.092;2022-07-23T07:41:24;31.50;53.10
10447;DHT22;5271;44.422;26.092;2022-07-23T07:43:52;31.60;52.70
10447;DHT22;5271;44.422;26.092;2022-07-23T07:46:19;31.70;52.60
10447;DHT22;5271;44.422;26.092;2022-07-23T07:48:46;31.70;52.40
10447;DHT22;5271;44.422;26.092;2022-07-23T07:51:13;31.70;52.20
10447;DHT22;5271;44.422;26.092;2022-07-23T07:53:41;31.70;52.20
10447;DHT22;5271;44.422;26.092;2022-07-23T07:56:08;31.70;52.60
10447;DHT22;5271;44.422;26.092;2022-07-23T07:58:37;31.80;52.70
10447;DHT22;5271;44.422;26.092;2022-07-23T08:01:05;31.90;52.00
10447;DHT22;5271;44.422;26.092;2022-07-23T08:03:32;31.90;52.00
10447;DHT22;5271;44.422;26.092;2022-07-23T08:05:59;32.00;52.10
